Time;durP1;ratioP1;P1;durP2;ratioP2;P2;SDS_P1;SDS_P2;PMS_P1;PMS_P2;Temp;Humidity;BMP_temperature;BMP_pressure;BME280_temperature;BME280_humidity;BME280_pressure;Samples;Min_cycle;Max_cycle;Signal;HPM_P1;HPM_P2
2023/08/23 00:00:26;;;;;;;5.30;5.20;;;14.90;99.90;;;;;;4985462;28;20463;-65
2023/08/23 00:02:53;;;;;;;5.00;5.00;;;14.80;99.90;;;;;;4987203;28;20961;-66
2023/08/23 00:05:21;;;;;;;5.40;5.30;;;14.90;99.90;;;;;;4985880;28;20474;-67
2023/08/23 00:07:48;;;;;;;4.97;4.97;;;14.80;99.90;;;;;;4983008;28;20494;-66
2023/08/23 00:10:15;;;;;;;5.20;5.10;;;14.80;99.90;;;;;;4980511;28;20463;-66
2023/08/23 00:12:41;;;;;;;4.93;4.93;;;14.80;99.90;;;;;;4989344;28;20458;-67
2023/08/23 00:15:10;;;;;;;5.40;5.30;;;14.70;99.90;;;;;;4988329;28;20466;-65
2023/08/23 00:17:37;;;;;;;5.30;5.20;;;14.70;99.90;;;;;;4986642;28;21032;-66
2023/08/23 00:20:04;;;;;;;5.60;5.50;;;14.70;99.90;;;;;;4987367;28;20463;-66
2023/08/23 00:22:31;;;;;;;5.80;5.70;;;14.60;99.90;;;;;;4986952;28;20546;-66
2023/08/23 00:24:58;;;;;;;5.50;5.40;;;14.60;99.90;;;;;;4982604;28;20478;-67
2023/08/23 00:27:25;;;;;;;5.47;5.37;;;14.60;99.90;;;;;;4982927;28;20865;-66
2023/08/23 00:29:52;;;;;;;4.93;4.93;;;14.70;99.90;;;;;;4986124;28;20708;-66
2023/08/23 00:32:21;;;;;;;5.20;5.10;;;14.60;99.90;;;;;;4985642;28;20874;-66
2023/08/23 00:34:47;;;;;;;4.87;4.87;;;14.60;99.90;;;;;;4987389;28;20470;-66
2023/08/23 00:37:14;;;;;;;5.70;5.60;;;14.60;99.90;;;;;;4986560;28;20517;-66
2023/08/23 00:39:41;;;;;;;5.23;5.13;;;14.50;99.90;;;;;;4983532;28;20459;-66
2023/08/23 00:42:09;;;;;;;5.47;5.37;;;14.50;99.90;;;;;;4987415;28;21022;-65
2023/08/23 00:44:35;;;;;;;5.73;5.63;;;14.40;99.90;;;;;;4980050;28;20962;-66
2023/08/23 00:47:02;;;;;;;5.53;5.43;;;14.40;99.90;;;;;;4961773;28;20526;-64
2023/08/23 00:49:34;;;;;;;5.70;5.60;;;14.40;99.90;;;;;;4976769;28;20463;-67
2023/08/23 00:52:02;;;;;;;5.60;5.50;;;14.40;99.90;;;;;;4985508;28;20828;-65
2023/08/23 00:54:29;;;;;;;5.90;5.80;;;14.40;99.90;;;;;;4985069;28;20490;-66
2023/08/23 00:57:00;;;;;;;6.27;6.17;;;14.40;99.90;;;;;;4982723;28;20459;-66
2023/08/23 00:59:27;;;;;;;6.30;6.20;;;14.40;99.90;;;;;;4983392;28;20747;-66
2023/08/23 01:01:54;;;;;;;6.00;5.90;;;14.50;99.90;;;;;;4994135;28;20462;-67
2023/08/23 01:04:20;;;;;;;5.80;5.70;;;14.50;99.90;;;;;;4989798;28;20466;-65
2023/08/23 01:06:57;;;;;;;6.30;6.20;;;14.40;99.90;;;;;;4984513;28;20498;-66
2023/08/23 01:09:33;;;;;;;6.40;6.30;;;14.40;99.90;;;;;;4980465;28;20501;-65
2023/08/23 01:12:08;;;;;;;6.40;6.30;;;14.40;99.90;;;;;;4976871;28;20963;-65
2023/08/23 01:14:43;;;;;;;6.83;6.73;;;14.40;99.90;;;;;;4981754;28;20474;-66
2023/08/23 01:17:13;;;;;;;6.50;6.40;;;14.40;99.90;;;;;;4987694;28;20470;-66
2023/08/23 01:19:45;;;;;;;6.70;6.60;;;14.30;99.90;;;;;;4975854;28;20862;-65
2023/08/23 01:22:17;;;;;;;6.40;6.30;;;14.30;99.90;;;;;;4986992;28;20458;-67
2023/08/23 01:24:45;;;;;;;6.47;6.37;;;14.30;99.90;;;;;;4980512;28;20474;-66
2023/08/23 01:27:12;;;;;;;6.87;6.77;;;14.30;99.90;;;;;;4982559;28;20489;-65
2023/08/23 01:29:39;;;;;;;6.77;6.67;;;14.30;99.90;;;;;;4987251;28;20946;-65
2023/08/23 01:32:17;;;;;;;6.90;6.80;;;14.20;99.90;;;;;;4983904;28;20796;-66
2023/08/23 01:34:49;;;;;;;6.70;6.60;;;14.30;99.90;;;;;;4986585;28;20507;-66
2023/08/23 01:37:17;;;;;;;6.70;6.60;;;14.30;99.90;;;;;;4982129;28;20470;-65
2023/08/23 01:39:47;;;;;;;6.63;6.53;;;14.30;99.90;;;;;;4987172;28;20868;-66
2023/08/23 01:42:14;;;;;;;7.27;7.17;;;14.20;99.90;;;;;;4987183;28;20458;-66
2023/08/23 01:44:43;;;;;;;7.10;7.00;;;14.20;99.90;;;;;;4985266;28;20572;-65
2023/08/23 01:47:10;;;;;;;6.73;6.63;;;14.30;99.90;;;;;;4989912;28;20600;-66
2023/08/23 01:49:37;;;;;;;7.20;7.10;;;14.30;99.90;;;;;;4985183;28;20489;-65
2023/08/23 01:52:04;;;;;;;5.70;5.60;;;14.30;99.90;;;;;;4982746;28;20849;-65
2023/08/23 01:54:31;;;;;;;5.90;5.80;;;14.40;99.90;;;;;;4981789;28;20484;-66
2023/08/23 01:56:59;;;;;;;6.63;6.53;;;14.40;99.90;;;;;;4987049;28;20918;-66
2023/08/23 01:59:27;;;;;;;5.97;5.87;;;14.30;99.90;;;;;;4974852;28;20462;-65
2023/08/23 02:01:54;;;;;;;6.00;5.90;;;14.20;99.90;;;;;;4983993;28;20646;-66
2023/08/23 02:04:23;;;;;;;6.00;5.90;;;14.20;99.90;;;;;;4986562;28;20462;-65
2023/08/23 02:06:50;;;;;;;6.60;6.50;;;14.10;99.90;;;;;;4985262;28;20941;-65
2023/08/23 02:09:17;;;;;;;6.60;6.50;;;14.10;99.90;;;;;;4989145;28;20480;-66
2023/08/23 02:11:45;;;;;;;6.53;6.43;;;14.00;99.90;;;;;;4992654;28;21035;-65
2023/08/23 02:14:15;;;;;;;6.77;6.67;;;14.00;99.90;;;;;;4992662;28;20490;-66
2023/08/23 02:16:42;;;;;;;6.60;6.50;;;13.90;99.90;;;;;;4996944;28;20494;-65
2023/08/23 02:19:09;;;;;;;6.63;6.53;;;13.90;99.90;;;;;;4987486;28;20479;-65
2023/08/23 02:21:37;;;;;;;6.47;6.37;;;13.90;99.90;;;;;;4991152;28;20600;-65
2023/08/23 02:24:07;;;;;;;6.53;6.43;;;13.90;99.90;;;;;;4992538;28;20513;-66
2023/08/23 02:26:35;;;;;;;6.47;6.37;;;13.80;99.90;;;;;;4987210;28;20533;-66
2023/08/23 02:29:02;;;;;;;6.60;6.50;;;13.80;99.90;;;;;;4992188;28;20564;-66
2023/08/23 02:31:30;;;;;;;6.73;6.63;;;13.90;99.90;;;;;;4991784;28;20462;-65
2023/08/23 02:33:57;;;;;;;6.40;6.30;;;13.90;99.90;;;;;;4985365;28;20470;-64
2023/08/23 02:36:26;;;;;;;6.57;6.47;;;13.90;99.90;;;;;;4991670;28;20458;-64
2023/08/23 02:38:56;;;;;;;6.50;6.40;;;13.90;99.90;;;;;;4991918;28;20462;-65
2023/08/23 02:41:24;;;;;;;7.20;7.10;;;13.90;99.90;;;;;;4989849;28;20887;-65
2023/08/23 02:43:51;;;;;;;7.20;7.10;;;13.90;99.90;;;;;;4987130;28;20466;-65
2023/08/23 02:46:19;;;;;;;6.43;6.33;;;13.90;99.90;;;;;;4990529;28;20509;-65
2023/08/23 02:48:47;;;;;;;6.23;6.13;;;14.00;99.90;;;;;;4988022;28;20832;-66
2023/08/23 02:51:14;;;;;;;6.37;6.27;;;13.90;99.90;;;;;;4991945;28;20490;-66
2023/08/23 02:53:41;;;;;;;6.30;6.20;;;13.90;99.90;;;;;;4986823;28;20486;-66
2023/08/23 02:56:08;;;;;;;6.57;6.47;;;13.80;99.90;;;;;;4991359;28;20466;-65
2023/08/23 02:58:35;;;;;;;6.90;6.80;;;13.80;99.90;;;;;;4989566;28;20864;-66
2023/08/23 03:01:02;;;;;;;6.80;6.70;;;13.80;99.90;;;;;;4980332;28;20519;-66
2023/08/23 03:03:29;;;;;;;6.47;6.37;;;13.70;99.90;;;;;;4988762;28;21001;-65
2023/08/23 03:05:58;;;;;;;6.70;6.60;;;13.60;99.90;;;;;;4991246;28;20448;-65
2023/08/23 03:08:26;;;;;;;6.93;6.83;;;13.60;99.90;;;;;;4985343;28;20511;-65
2023/08/23 03:11:01;;;;;;;7.03;6.93;;;13.60;99.90;;;;;;4990960;28;21004;-65
2023/08/23 03:13:28;;;;;;;7.13;7.03;;;13.60;99.90;;;;;;4989366;28;20937;-66
2023/08/23 03:15:55;;;;;;;7.13;7.03;;;13.60;99.90;;;;;;4994086;28;20465;-66
2023/08/23 03:18:22;;;;;;;7.47;7.37;;;13.50;99.90;;;;;;4987937;28;20573;-65
2023/08/23 03:20:50;;;;;;;6.03;5.93;;;13.60;99.90;;;;;;4980899;28;20463;-65
2023/08/23 03:23:19;;;;;;;6.27;6.17;;;13.70;99.90;;;;;;4991235;28;20454;-66
2023/08/23 03:25:46;;;;;;;6.60;6.50;;;13.70;99.90;;;;;;4991054;28;20455;-66
2023/08/23 03:28:13;;;;;;;6.37;6.27;;;13.70;99.90;;;;;;4989447;28;20502;-65
2023/08/23 03:30:42;;;;;;;5.80;5.70;;;13.60;99.90;;;;;;4984110;28;20463;-66
2023/08/23 03:33:09;;;;;;;6.20;6.10;;;13.60;99.90;;;;;;4984310;28;20514;-64
2023/08/23 03:35:36;;;;;;;6.53;6.43;;;13.50;99.90;;;;;;4990402;28;20462;-64
2023/08/23 03:38:04;;;;;;;6.60;6.50;;;13.50;99.90;;;;;;4987500;28;20467;-66
2023/08/23 03:40:37;;;;;;;6.93;6.83;;;13.40;99.90;;;;;;4990466;28;20451;-66
2023/08/23 03:43:06;;;;;;;7.10;7.00;;;13.40;99.90;;;;;;4990558;28;20765;-65
2023/08/23 03:45:34;;;;;;;6.90;6.80;;;13.40;99.90;;;;;;4982251;28;20469;-66
2023/08/23 03:48:01;;;;;;;6.97;6.87;;;13.40;99.90;;;;;;4984246;28;20486;-66
2023/08/23 03:50:28;;;;;;;6.83;6.73;;;13.30;99.90;;;;;;4990115;28;20458;-66
2023/08/23 03:52:55;;;;;;;7.20;7.10;;;13.30;99.90;;;;;;4990321;28;20479;-65
2023/08/23 03:55:22;;;;;;;7.53;7.43;;;13.30;99.90;;;;;;4988664;28;20491;-66
2023/08/23 03:57:52;;;;;;;7.70;7.60;;;13.30;99.90;;;;;;4990573;28;20462;-66
2023/08/23 04:00:20;;;;;;;7.33;7.23;;;13.30;99.90;;;;;;4990293;28;20578;-65
2023/08/23 04:02:48;;;;;;;7.63;7.53;;;13.30;99.90;;;;;;4984173;28;20470;-64
2023/08/23 04:05:15;;;;;;;7.70;7.60;;;13.30;99.90;;;;;;4985608;28;21017;-66
2023/08/23 04:07:44;;;;;;;7.53;7.43;;;13.30;99.90;;;;;;4990100;28;20497;-65
2023/08/23 04:10:11;;;;;;;7.30;7.20;;;13.30;99.90;;;;;;4988796;28;20521;-64
2023/08/23 04:12:38;;;;;;;7.73;7.63;;;13.40;99.90;;;;;;4989841;28;20476;-65
2023/08/23 04:15:07;;;;;;;7.67;7.57;;;13.30;99.90;;;;;;4988859;28;20466;-64
2023/08/23 04:17:34;;;;;;;7.80;7.70;;;13.30;99.90;;;;;;4989530;28;20556;-66
2023/08/23 04:20:01;;;;;;;7.40;7.30;;;13.30;99.90;;;;;;4988406;28;20467;-65
2023/08/23 04:22:29;;;;;;;7.97;7.87;;;13.30;99.90;;;;;;4983059;28;20466;-65
2023/08/23 04:24:56;;;;;;;8.23;8.13;;;13.20;99.90;;;;;;4976945;28;20518;-64
2023/08/23 04:27:23;;;;;;;7.90;7.80;;;13.20;99.90;;;;;;4989806;28;20466;-65
2023/08/23 04:29:50;;;;;;;8.50;8.40;;;13.10;99.90;;;;;;4989858;28;20497;-65
2023/08/23 04:32:18;;;;;;;8.33;8.23;;;13.00;99.90;;;;;;4987171;28;20463;-66
2023/08/23 04:34:45;;;;;;;8.20;8.10;;;13.10;99.90;;;;;;4989799;28;20466;-65
2023/08/23 04:37:12;;;;;;;8.13;8.03;;;13.10;99.90;;;;;;4989958;28;20466;-65
2023/08/23 04:39:39;;;;;;;8.37;8.27;;;13.00;99.90;;;;;;4982809;28;20467;-65
2023/08/23 04:42:06;;;;;;;8.00;7.90;;;13.10;99.90;;;;;;4984029;28;20466;-66
2023/08/23 04:44:33;;;;;;;7.70;7.60;;;13.10;99.90;;;;;;4989665;28;20562;-66
2023/08/23 04:47:00;;;;;;;8.23;8.13;;;13.10;99.90;;;;;;4990010;28;20872;-65
2023/08/23 04:49:28;;;;;;;7.90;7.80;;;13.10;99.90;;;;;;4986216;28;20727;-65
2023/08/23 04:51:55;;;;;;;8.27;8.17;;;13.20;99.90;;;;;;4986013;28;20942;-65
2023/08/23 04:54:23;;;;;;;7.80;7.70;;;13.20;99.90;;;;;;4984145;28;20702;-65
2023/08/23 04:56:51;;;;;;;8.00;7.90;;;13.20;99.90;;;;;;4989075;28;20463;-64
2023/08/23 04:59:19;;;;;;;8.03;7.93;;;13.30;99.90;;;;;;4976290;28;20587;-64
2023/08/23 05:01:46;;;;;;;8.10;8.00;;;13.30;99.90;;;;;;4984904;28;20470;-65
2023/08/23 05:04:14;;;;;;;8.13;8.03;;;13.40;99.90;;;;;;4989182;28;20502;-64
2023/08/23 05:06:41;;;;;;;8.00;7.90;;;13.50;99.90;;;;;;4981670;28;20490;-64
2023/08/23 05:09:08;;;;;;;8.00;7.90;;;13.50;99.90;;;;;;4985122;28;20538;-66
2023/08/23 05:11:35;;;;;;;7.97;7.87;;;13.60;99.90;;;;;;4982242;28;20976;-66
2023/08/23 05:14:02;;;;;;;7.53;7.43;;;13.60;99.90;;;;;;4980740;28;20467;-66
2023/08/23 05:16:30;;;;;;;7.80;7.70;;;13.70;99.90;;;;;;4980813;28;21030;-65
2023/08/23 05:18:57;;;;;;;7.73;7.63;;;13.70;99.90;;;;;;4985326;28;20978;-65
2023/08/23 05:21:24;;;;;;;7.77;7.67;;;13.70;99.90;;;;;;4985377;28;20888;-64
2023/08/23 05:23:53;;;;;;;7.83;7.73;;;13.70;99.90;;;;;;4982641;28;20470;-66
2023/08/23 05:26:19;;;;;;;8.13;8.03;;;13.80;99.90;;;;;;4980912;28;20466;-65
2023/08/23 05:28:46;;;;;;;8.00;7.90;;;13.80;99.90;;;;;;4981997;28;21000;-65
2023/08/23 05:31:15;;;;;;;7.90;7.80;;;13.80;99.90;;;;;;4985173;28;20518;-64
2023/08/23 05:33:43;;;;;;;7.77;7.67;;;13.90;99.90;;;;;;4983578;28;20463;-66
2023/08/23 05:36:10;;;;;;;6.77;6.67;;;13.90;99.90;;;;;;4985485;28;20473;-66
2023/08/23 05:38:36;;;;;;;6.43;6.33;;;13.90;99.90;;;;;;4980941;28;20464;-66
2023/08/23 05:41:05;;;;;;;6.20;6.10;;;14.00;99.90;;;;;;4987517;28;20459;-65
2023/08/23 05:43:32;;;;;;;6.63;6.53;;;14.10;99.90;;;;;;4988296;28;20847;-64
2023/08/23 05:46:00;;;;;;;6.03;5.93;;;14.20;99.90;;;;;;4985550;28;20459;-64
2023/08/23 05:48:27;;;;;;;6.60;6.50;;;14.30;99.90;;;;;;4991067;28;20576;-66
2023/08/23 05:50:54;;;;;;;6.80;6.70;;;14.40;99.90;;;;;;4991956;28;20474;-66
2023/08/23 05:53:23;;;;;;;7.10;7.00;;;14.40;99.90;;;;;;4989139;28;20938;-66
2023/08/23 05:55:50;;;;;;;6.53;6.43;;;14.60;99.90;;;;;;4989104;28;20466;-64
2023/08/23 05:58:20;;;;;;;6.40;6.30;;;14.70;99.90;;;;;;4991103;28;20479;-66
2023/08/23 06:00:48;;;;;;;6.40;6.30;;;14.80;99.90;;;;;;4995187;28;20499;-64
2023/08/23 06:03:15;;;;;;;6.60;6.50;;;14.90;99.90;;;;;;4994235;28;20462;-65
2023/08/23 06:05:42;;;;;;;6.50;6.40;;;15.00;99.90;;;;;;4985039;28;23154;-67
2023/08/23 06:08:10;;;;;;;6.10;6.00;;;15.20;99.90;;;;;;4991553;28;21032;-64
2023/08/23 06:10:37;;;;;;;6.07;5.97;;;15.40;99.90;;;;;;4989931;28;20454;-66
2023/08/23 06:13:03;;;;;;;6.10;6.00;;;15.60;99.90;;;;;;4990512;28;20475;-65
2023/08/23 06:15:32;;;;;;;5.50;5.40;;;15.70;99.90;;;;;;4991767;28;20462;-66
2023/08/23 06:17:59;;;;;;;5.90;5.80;;;15.80;99.90;;;;;;4984900;28;20482;-64
2023/08/23 06:20:25;;;;;;;6.00;5.90;;;15.90;99.90;;;;;;4990643;28;20830;-64
2023/08/23 06:22:52;;;;;;;5.80;5.70;;;16.10;99.90;;;;;;4991805;28;20455;-66
2023/08/23 06:25:19;;;;;;;6.40;6.30;;;16.20;99.90;;;;;;4984830;28;20466;-65
2023/08/23 06:27:47;;;;;;;5.90;5.80;;;16.30;99.90;;;;;;4990962;28;20487;-65
2023/08/23 06:30:15;;;;;;;6.57;6.47;;;16.40;99.90;;;;;;4986895;28;20472;-65
2023/08/23 06:32:46;;;;;;;6.00;5.90;;;16.60;99.90;;;;;;4992626;28;20467;-65
2023/08/23 06:35:13;;;;;;;6.30;6.20;;;16.70;99.90;;;;;;4988760;28;20980;-66
2023/08/23 06:37:42;;;;;;;6.30;6.20;;;16.80;99.90;;;;;;4987572;28;20515;-66
2023/08/23 06:40:11;;;;;;;6.17;6.07;;;16.90;99.90;;;;;;4983123;28;20462;-66
2023/08/23 06:42:39;;;;;;;6.07;5.97;;;17.00;99.90;;;;;;4986648;28;20462;-66
2023/08/23 06:45:07;;;;;;;6.00;5.90;;;17.10;99.90;;;;;;4988094;28;20465;-64
2023/08/23 06:47:34;;;;;;;6.00;5.90;;;17.20;99.90;;;;;;4976809;28;20552;-65
2023/08/23 06:50:04;;;;;;;6.20;6.10;;;17.30;99.90;;;;;;4982474;28;20502;-66
2023/08/23 06:52:32;;;;;;;6.93;6.83;;;17.40;99.90;;;;;;4989024;28;20463;-64
2023/08/23 06:54:59;;;;;;;6.90;6.80;;;17.50;99.90;;;;;;4979200;28;20502;-65
2023/08/23 06:57:30;;;;;;;7.50;7.40;;;17.70;99.90;;;;;;4989483;28;20517;-65
2023/08/23 06:59:58;;;;;;;7.90;7.80;;;17.80;99.90;;;;;;4982023;28;20470;-65
2023/08/23 07:02:26;;;;;;;8.70;8.60;;;17.90;99.90;;;;;;4987515;28;20536;-65
2023/08/23 07:04:53;;;;;;;8.50;8.40;;;18.00;99.90;;;;;;4991781;28;20938;-64
2023/08/23 07:07:22;;;;;;;8.43;8.33;;;18.10;99.90;;;;;;4985627;28;20463;-66
2023/08/23 07:09:50;;;;;;;9.10;8.90;;;18.30;99.90;;;;;;4990743;28;20501;-66
2023/08/23 07:12:16;;;;;;;8.80;8.70;;;18.50;99.90;;;;;;4990379;28;20454;-64
2023/08/23 07:14:45;;;;;;;8.70;8.60;;;18.60;99.90;;;;;;4989398;28;20525;-65
2023/08/23 07:17:13;;;;;;;9.13;8.97;;;18.70;99.90;;;;;;4986288;28;20487;-66
2023/08/23 07:19:41;;;;;;;9.50;9.30;;;18.70;99.90;;;;;;4987779;28;20471;-64
2023/08/23 07:22:08;;;;;;;9.40;9.20;;;18.80;99.90;;;;;;4983220;28;20482;-66
2023/08/23 07:24:36;;;;;;;9.93;9.73;;;18.90;99.90;;;;;;4988935;28;20470;-65
2023/08/23 07:27:04;;;;;;;9.80;9.60;;;19.00;99.90;;;;;;4986886;28;20831;-66
2023/08/23 07:29:32;;;;;;;9.57;9.37;;;19.20;99.90;;;;;;4990722;28;20532;-66
2023/08/23 07:32:02;;;;;;;9.77;9.57;;;19.40;99.90;;;;;;4996504;28;20509;-65
2023/08/23 07:34:29;;;;;;;10.30;10.10;;;19.50;99.90;;;;;;4987245;28;20459;-66
2023/08/23 07:36:56;;;;;;;10.60;10.40;;;19.60;99.90;;;;;;4980817;28;20766;-66
2023/08/23 07:39:25;;;;;;;10.40;10.20;;;19.80;99.90;;;;;;4989410;28;20833;-66
2023/08/23 07:41:55;;;;;;;11.17;10.87;;;19.90;99.90;;;;;;4988109;28;20485;-66
2023/08/23 07:44:22;;;;;;;11.00;10.80;;;20.20;99.90;;;;;;4990453;28;20887;-66
2023/08/23 07:46:49;;;;;;;10.90;10.70;;;20.30;99.90;;;;;;4988458;28;20541;-66
2023/08/23 07:49:16;;;;;;;11.37;11.07;;;20.50;99.90;;;;;;4988199;28;20498;-67
2023/08/23 07:51:43;;;;;;;11.43;11.13;;;20.60;99.90;;;;;;4984765;28;20479;-65
2023/08/23 07:54:11;;;;;;;11.93;11.63;;;20.80;99.90;;;;;;4982048;28;20491;-66
2023/08/23 07:56:38;;;;;;;11.90;11.60;;;20.70;99.90;;;;;;4971781;28;20478;-65
2023/08/23 07:59:06;;;;;;;12.10;11.80;;;20.80;99.90;;;;;;4982671;28;20515;-66
2023/08/23 08:01:33;;;;;;;12.07;11.77;;;21.00;99.90;;;;;;4975946;28;20970;-66
2023/08/23 08:04:00;;;;;;;12.50;12.20;;;21.10;99.90;;;;;;4979898;28;20477;-66
2023/08/23 08:06:27;;;;;;;12.20;11.90;;;21.20;99.90;;;;;;4984787;28;20513;-66
2023/08/23 08:08:54;;;;;;;12.33;12.03;;;21.30;99.90;;;;;;4981491;28;20487;-67
2023/08/23 08:11:21;;;;;;;12.37;12.07;;;21.40;99.90;;;;;;4975489;28;20459;-67
2023/08/23 08:13:48;;;;;;;13.27;12.87;;;21.60;99.90;;;;;;4986290;28;20499;-68
2023/08/23 08:16:16;;;;;;;12.40;12.10;;;21.70;99.90;;;;;;4986493;28;20461;-66
2023/08/23 08:18:43;;;;;;;12.50;12.20;;;21.80;99.90;;;;;;4985880;28;20466;-67
2023/08/23 08:21:11;;;;;;;12.40;12.10;;;21.90;99.90;;;;;;4982690;28;20557;-66
2023/08/23 08:23:38;;;;;;;12.80;12.40;;;22.10;99.90;;;;;;4986905;28;20470;-67
2023/08/23 08:26:06;;;;;;;12.30;12.00;;;22.20;99.90;;;;;;4983314;28;20470;-68
2023/08/23 08:28:33;;;;;;;12.30;12.00;;;22.40;99.90;;;;;;4986361;28;21048;-66
2023/08/23 08:31:01;;;;;;;12.33;12.03;;;22.40;99.90;;;;;;4987528;28;20462;-67
2023/08/23 08:33:29;;;;;;;12.50;12.20;;;22.50;99.90;;;;;;4980896;28;20458;-67
2023/08/23 08:35:56;;;;;;;12.60;12.30;;;22.50;99.90;;;;;;4985758;28;20463;-67
2023/08/23 08:38:23;;;;;;;12.20;11.90;;;22.70;99.90;;;;;;4980620;28;20460;-67
2023/08/23 08:40:50;;;;;;;12.90;12.50;;;22.70;99.90;;;;;;4985175;28;20477;-66
2023/08/23 08:43:17;;;;;;;12.50;12.20;;;22.80;99.90;;;;;;4981040;28;20471;-67
2023/08/23 08:45:44;;;;;;;12.90;12.50;;;22.90;99.90;;;;;;4986548;28;20455;-66
2023/08/23 08:48:11;;;;;;;12.40;12.10;;;23.00;99.90;;;;;;4983894;28;20470;-67
2023/08/23 08:50:43;;;;;;;12.30;12.00;;;23.20;99.90;;;;;;4984162;28;20490;-68
2023/08/23 08:53:15;;;;;;;12.97;12.57;;;23.20;99.90;;;;;;4981668;28;20533;-67
2023/08/23 08:55:43;;;;;;;13.20;12.80;;;23.50;99.90;;;;;;4975750;28;20602;-67
2023/08/23 08:58:15;;;;;;;13.27;12.87;;;23.90;99.90;;;;;;4979487;28;20459;-67
2023/08/23 09:00:43;;;;;;;13.40;13.00;;;24.70;99.90;;;;;;4984358;28;20455;-67
2023/08/23 09:03:11;;;;;;;14.20;13.80;;;25.80;99.90;;;;;;4983925;28;20471;-67
2023/08/23 09:05:40;;;;;;;13.73;13.33;;;26.70;99.90;;;;;;4988259;28;20507;-66
2023/08/23 09:08:08;;;;;;;14.00;13.60;;;27.60;99.90;;;;;;4986094;28;20463;-68
2023/08/23 09:10:34;;;;;;;14.37;13.97;;;28.10;99.90;;;;;;4976716;28;20501;-68
2023/08/23 09:13:01;;;;;;;14.23;13.83;;;28.80;99.90;;;;;;4984851;28;20941;-67
2023/08/23 09:15:29;;;;;;;13.93;13.53;;;29.10;99.90;;;;;;4984928;28;20466;-67
2023/08/23 09:17:56;;;;;;;14.57;14.13;;;29.30;99.90;;;;;;4982635;28;20563;-68
2023/08/23 09:20:23;;;;;;;14.30;13.90;;;29.80;99.90;;;;;;4985628;28;20877;-67
2023/08/23 09:22:55;;;;;;;14.53;14.13;;;30.10;99.90;;;;;;4979210;28;20945;-68
2023/08/23 09:25:23;;;;;;;15.00;14.50;;;30.40;99.90;;;;;;4979447;28;21422;-67
2023/08/23 09:27:52;;;;;;;14.50;14.10;;;30.70;99.90;;;;;;4985158;28;20493;-68
2023/08/23 09:30:19;;;;;;;14.40;14.00;;;31.20;99.90;;;;;;4985955;28;20969;-68
2023/08/23 09:32:46;;;;;;;14.50;14.10;;;31.20;99.90;;;;;;4985698;28;20545;-67
2023/08/23 09:35:14;;;;;;;14.90;14.40;;;31.60;99.90;;;;;;4981578;28;20466;-68
2023/08/23 09:37:42;;;;;;;14.50;14.10;;;32.00;99.90;;;;;;4980065;28;20471;-68
2023/08/23 09:40:19;;;;;;;14.10;13.70;;;32.00;99.90;;;;;;4983146;28;20498;-68
2023/08/23 09:42:47;;;;;;;15.00;14.50;;;31.80;99.90;;;;;;4982364;28;20799;-67
2023/08/23 09:45:17;;;;;;;15.00;14.50;;;31.20;99.90;;;;;;4985389;28;20463;-67
2023/08/23 09:47:51;;;;;;;14.83;14.33;;;30.90;99.90;;;;;;4980643;28;20490;-68
2023/08/23 09:50:19;;;;;;;14.13;13.73;;;31.20;99.90;;;;;;4984543;28;20498;-68
2023/08/23 09:52:48;;;;;;;14.70;14.30;;;31.30;99.90;;;;;;4978460;28;20550;-68
2023/08/23 09:55:17;;;;;;;15.00;14.50;;;31.70;99.90;;;;;;4983322;28;20502;-68
2023/08/23 09:57:44;;;;;;;14.70;14.30;;;31.50;99.90;;;;;;4982359;28;20467;-68
2023/08/23 10:00:13;;;;;;;14.30;13.90;;;32.00;99.90;;;;;;4983340;28;20466;-68
2023/08/23 10:02:42;;;;;;;14.40;14.00;;;32.70;99.90;;;;;;4979342;28;20851;-68
2023/08/23 10:05:11;;;;;;;14.77;14.33;;;33.10;99.90;;;;;;4983761;28;21850;-68
2023/08/23 10:07:40;;;;;;;14.13;13.73;;;32.70;99.90;;;;;;4981704;28;20499;-68
2023/08/23 10:10:08;;;;;;;14.20;13.80;;;32.10;99.90;;;;;;4984643;28;20601;-68
2023/08/23 10:12:40;;;;;;;14.03;13.63;;;32.10;99.90;;;;;;4984662;28;20451;-67
2023/08/23 10:15:10;;;;;;;13.90;13.50;;;32.30;99.90;;;;;;4982536;28;21199;-68
2023/08/23 10:17:39;;;;;;;13.77;13.37;;;32.50;99.90;;;;;;4980772;28;20567;-68
2023/08/23 10:20:09;;;;;;;13.97;13.57;;;32.80;99.90;;;;;;4981934;28;20459;-67
2023/08/23 10:22:37;;;;;;;13.80;13.40;;;32.20;99.90;;;;;;4984880;28;20455;-68
2023/08/23 10:25:17;;;;;;;13.90;13.50;;;32.30;99.90;;;;;;4983807;28;20463;-68
2023/08/23 10:27:49;;;;;;;14.00;13.60;;;32.20;99.90;;;;;;4978103;28;20461;-67
2023/08/23 10:30:21;;;;;;;13.60;13.20;;;32.20;99.90;;;;;;4978658;28;20489;-68
2023/08/23 10:32:48;;;;;;;13.83;13.43;;;32.00;99.90;;;;;;4986159;28;20538;-68
2023/08/23 10:35:28;;;;;;;12.70;12.40;;;31.80;99.90;;;;;;4987558;28;20552;-68
2023/08/23 10:37:57;;;;;;;12.60;12.30;;;31.70;99.90;;;;;;4986225;28;20457;-68
2023/08/23 10:40:28;;;;;;;13.90;13.50;;;31.60;99.90;;;;;;4980304;28;20529;-68
2023/08/23 10:42:56;;;;;;;13.23;12.90;;;31.30;99.90;;;;;;4981941;28;20884;-68
2023/08/23 10:45:23;;;;;;;13.73;13.33;;;31.30;99.90;;;;;;4984206;28;20515;-68
2023/08/23 10:47:51;;;;;;;13.70;13.30;;;31.00;99.90;;;;;;4985440;28;20517;-68
2023/08/23 10:50:19;;;;;;;13.97;13.57;;;31.40;99.90;;;;;;4983327;28;20489;-68
2023/08/23 10:52:48;;;;;;;14.50;14.10;;;30.70;99.90;;;;;;4980602;28;20472;-68
2023/08/23 10:55:15;;;;;;;14.10;13.70;;;30.50;99.90;;;;;;4986076;28;20493;-68
2023/08/23 10:57:42;;;;;;;14.00;13.60;;;30.80;99.90;;;;;;4978529;28;20475;-68
2023/08/23 11:00:12;;;;;;;14.03;13.63;;;31.30;99.90;;;;;;4978947;28;20861;-68
2023/08/23 11:02:39;;;;;;;13.87;13.47;;;32.00;99.90;;;;;;4980932;28;20470;-67
2023/08/23 11:05:07;;;;;;;13.90;13.50;;;31.40;99.90;;;;;;4981204;28;20573;-68
2023/08/23 11:07:34;;;;;;;12.80;12.50;;;31.10;99.90;;;;;;4976883;28;20884;-68
2023/08/23 11:10:02;;;;;;;13.60;13.20;;;31.20;99.90;;;;;;4971475;28;20535;-68
2023/08/23 11:12:28;;;;;;;14.43;14.03;;;30.60;99.90;;;;;;4979995;28;20476;-68
2023/08/23 11:14:57;;;;;;;13.53;13.13;;;30.60;99.90;;;;;;4983151;28;20509;-67
2023/08/23 11:17:26;;;;;;;13.60;13.20;;;30.70;99.90;;;;;;4977748;28;20938;-67
2023/08/23 11:19:54;;;;;;;13.63;13.23;;;31.10;99.90;;;;;;4977680;28;20540;-67
2023/08/23 11:22:24;;;;;;;14.07;13.67;;;32.10;99.90;;;;;;4987941;28;20462;-68
2023/08/23 11:24:51;;;;;;;13.90;13.50;;;32.50;99.90;;;;;;4987482;28;20455;-68
2023/08/23 11:27:19;;;;;;;13.87;13.47;;;32.70;99.50;;;;;;4982536;28;20908;-68
2023/08/23 11:29:47;;;;;;;13.90;13.50;;;32.40;99.70;;;;;;4987204;28;20483;-68
2023/08/23 11:32:13;;;;;;;13.27;12.87;;;31.90;99.60;;;;;;4983913;28;20466;-68
2023/08/23 11:34:41;;;;;;;14.03;13.63;;;32.20;98.40;;;;;;4981018;28;20525;-68
2023/08/23 11:37:09;;;;;;;13.03;12.73;;;32.40;96.50;;;;;;4986441;28;20514;-68
2023/08/23 11:39:37;;;;;;;13.67;13.27;;;32.50;96.30;;;;;;4982252;28;20456;-68
2023/08/23 11:42:04;;;;;;;13.50;13.10;;;32.50;96.60;;;;;;4980047;28;21052;-68
2023/08/23 11:44:32;;;;;;;13.20;12.90;;;32.90;96.20;;;;;;4982776;28;20517;-68
2023/08/23 11:46:59;;;;;;;13.50;13.10;;;33.10;95.90;;;;;;4986264;28;20814;-68
2023/08/23 11:49:27;;;;;;;13.00;12.70;;;33.10;94.30;;;;;;4988294;28;20454;-68
2023/08/23 11:51:58;;;;;;;13.90;13.50;;;32.90;93.30;;;;;;4983646;28;20506;-68
2023/08/23 11:54:25;;;;;;;14.10;13.70;;;32.70;92.10;;;;;;4982489;28;20502;-68
2023/08/23 11:56:53;;;;;;;14.00;13.60;;;32.40;91.00;;;;;;4986915;28;20466;-68
2023/08/23 11:59:21;;;;;;;14.00;13.60;;;32.10;91.80;;;;;;4987441;28;20458;-68
2023/08/23 12:01:48;;;;;;;14.13;13.73;;;32.00;93.10;;;;;;4984487;28;20501;-68
2023/08/23 12:04:14;;;;;;;13.17;12.83;;;32.40;92.30;;;;;;4982951;28;20835;-68
2023/08/23 12:06:42;;;;;;;14.10;13.70;;;32.40;92.80;;;;;;4977459;28;20474;-68
2023/08/23 12:09:12;;;;;;;13.67;13.27;;;32.60;92.60;;;;;;4979981;28;20463;-68
2023/08/23 12:11:39;;;;;;;14.00;13.60;;;32.80;93.60;;;;;;4984456;28;20525;-68
2023/08/23 12:14:06;;;;;;;14.20;13.80;;;33.30;93.90;;;;;;4984918;28;20962;-68
2023/08/23 12:16:32;;;;;;;14.07;13.67;;;33.60;93.80;;;;;;4981971;28;20490;-68
2023/08/23 12:19:00;;;;;;;13.80;13.40;;;33.70;91.30;;;;;;4984905;28;20852;-68
2023/08/23 12:21:27;;;;;;;12.77;12.47;;;33.70;92.40;;;;;;4984149;28;20467;-68
2023/08/23 12:23:54;;;;;;;13.13;12.83;;;33.90;92.10;;;;;;4971188;28;20463;-68
2023/08/23 12:26:25;;;;;;;13.17;12.87;;;34.00;92.40;;;;;;4969512;28;20590;-69
2023/08/23 12:28:51;;;;;;;12.90;12.60;;;34.10;92.90;;;;;;4984870;28;20888;-68
2023/08/23 12:31:20;;;;;;;13.00;12.70;;;34.70;91.50;;;;;;4984230;28;20494;-68
2023/08/23 12:33:47;;;;;;;13.00;12.70;;;35.00;89.30;;;;;;4982748;28;20991;-69
2023/08/23 12:36:15;;;;;;;13.30;12.97;;;35.20;86.70;;;;;;4978584;28;20838;-68
2023/08/23 12:38:42;;;;;;;13.27;12.93;;;35.20;88.00;;;;;;4976146;28;20464;-68
2023/08/23 12:41:09;;;;;;;14.00;13.60;;;35.50;87.60;;;;;;4975053;28;20570;-68